sensor_id;sensor_type;location;lat;lon;timestamp;temperature;humidity
42141;DHT22;27809;51.864;5.646;2023-02-15T00:01:21;1.70;99.90
42141;DHT22;27809;51.864;5.646;2023-02-15T00:03:49;1.70;99.90
42141;DHT22;27809;51.864;5.646;2023-02-15T00:06:15;1.60;99.90
42141;DHT22;27809;51.864;5.646;2023-02-15T00:08:41;1.40;99.90
42141;DHT22;27809;51.864;5.646;2023-02-15T00:11:15;1.50;99.90
42141;DHT22;27809;51.864;5.646;2023-02-15T00:13:41;1.40;99.90
42141;DHT22;27809;51.864;5.646;2023-02-15T00:16:10;1.40;99.90
42141;DHT22;27809;51.864;5.646;2023-02-15T00:18:36;1.50;99.90
42141;DHT22;27809;51.864;5.646;2023-02-15T00:21:09;1.30;99.90
42141;DHT22;27809;51.864;5.646;2023-02-15T00:23:35;1.10;99.90
42141;DHT22;27809;51.864;5.646;2023-02-15T00:26:09;0.90;99.90
42141;DHT22;27809;51.864;5.646;2023-02-15T00:28:35;0.80;99.90
42141;DHT22;27809;51.864;5.646;2023-02-15T00:31:11;1.10;99.90
42141;DHT22;27809;51.864;5.646;2023-02-15T00:33:38;1.20;99.90
42141;DHT22;27809;51.864;5.646;2023-02-15T00:36:05;1.40;99.90
42141;DHT22;27809;51.864;5.646;2023-02-15T00:38:32;1.50;99.90
42141;DHT22;27809;51.864;5.646;2023-02-15T00:41:00;1.70;99.90
42141;DHT22;27809;51.864;5.646;2023-02-15T00:43:28;1.60;99.90
42141;DHT22;27809;51.864;5.646;2023-02-15T00:45:54;1.50;99.90
42141;DHT22;27809;51.864;5.646;2023-02-15T00:48:20;1.60;99.90
42141;DHT22;27809;51.864;5.646;2023-02-15T00:50:53;1.70;99.90
42141;DHT22;27809;51.864;5.646;2023-02-15T00:53:20;1.70;99.90
42141;DHT22;27809;51.864;5.646;2023-02-15T00:55:46;1.20;99.90
42141;DHT22;27809;51.864;5.646;2023-02-15T00:58:12;0.90;99.90
42141;DHT22;27809;51.864;5.646;2023-02-15T01:00:38;0.90;99.90
42141;DHT22;27809;51.864;5.646;2023-02-15T01:03:05;0.70;99.90
42141;DHT22;27809;51.864;5.646;2023-02-15T01:05:31;0.70;99.90
42141;DHT22;27809;51.864;5.646;2023-02-15T01:07:57;0.60;99.90
42141;DHT22;27809;51.864;5.646;2023-02-15T01:10:23;0.70;99.90
42141;DHT22;27809;51.864;5.646;2023-02-15T01:12:50;0.80;99.90
42141;DHT22;27809;51.864;5.646;2023-02-15T01:15:16;0.80;99.90
42141;DHT22;27809;51.864;5.646;2023-02-15T01:17:42;0.80;99.90
42141;DHT22;27809;51.864;5.646;2023-02-15T01:20:11;0.90;99.90
42141;DHT22;27809;51.864;5.646;2023-02-15T01:22:37;0.50;99.90
42141;DHT22;27809;51.864;5.646;2023-02-15T01:25:03;0.30;99.90
42141;DHT22;27809;51.864;5.646;2023-02-15T01:27:29;0.10;99.90
42141;DHT22;27809;51.864;5.646;2023-02-15T01:29:56;0.20;99.90
42141;DHT22;27809;51.864;5.646;2023-02-15T01:32:22;0.10;99.90
42141;DHT22;27809;51.864;5.646;2023-02-15T01:34:47;0.20;99.90
42141;DHT22;27809;51.864;5.646;2023-02-15T01:37:13;0.10;99.90
42141;DHT22;27809;51.864;5.646;2023-02-15T01:39:38;0.10;99.90
42141;DHT22;27809;51.864;5.646;2023-02-15T01:42:04;0.20;99.90
42141;DHT22;27809;51.864;5.646;2023-02-15T01:44:46;0.00;99.90
42141;DHT22;27809;51.864;5.646;2023-02-15T01:47:34;-0.10;99.90
42141;DHT22;27809;51.864;5.646;2023-02-15T01:50:48;0.00;99.90
42141;DHT22;27809;51.864;5.646;2023-02-15T01:53:11;0.10;99.90
42141;DHT22;27809;51.864;5.646;2023-02-15T01:55:54;0.10;99.90
42141;DHT22;27809;51.864;5.646;2023-02-15T01:58:21;0.40;99.90
42141;DHT22;27809;51.864;5.646;2023-02-15T02:00:48;0.50;99.90
42141;DHT22;27809;51.864;5.646;2023-02-15T02:03:14;0.60;99.90
42141;DHT22;27809;51.864;5.646;2023-02-15T02:05:40;0.40;99.90
42141;DHT22;27809;51.864;5.646;2023-02-15T02:08:06;0.40;99.90
42141;DHT22;27809;51.864;5.646;2023-02-15T02:10:33;0.40;99.90
42141;DHT22;27809;51.864;5.646;2023-02-15T02:13:01;0.60;99.90
42141;DHT22;27809;51.864;5.646;2023-02-15T02:15:40;0.60;99.90
42141;DHT22;27809;51.864;5.646;2023-02-15T02:21:09;0.70;99.90
42141;DHT22;27809;51.864;5.646;2023-02-15T02:29:11;0.50;99.90
42141;DHT22;27809;51.864;5.646;2023-02-15T02:34:30;0.30;99.90
42141;DHT22;27809;51.864;5.646;2023-02-15T02:39:54;0.40;99.90
42141;DHT22;27809;51.864;5.646;2023-02-15T02:42:38;0.60;99.90
42141;DHT22;27809;51.864;5.646;2023-02-15T02:45:05;0.70;99.90
42141;DHT22;27809;51.864;5.646;2023-02-15T02:47:39;0.80;99.90
42141;DHT22;27809;51.864;5.646;2023-02-15T02:50:14;0.70;99.90
42141;DHT22;27809;51.864;5.646;2023-02-15T02:55:16;0.40;99.90
42141;DHT22;27809;51.864;5.646;2023-02-15T03:00:15;0.50;99.90
42141;DHT22;27809;51.864;5.646;2023-02-15T03:02:44;0.60;99.90
42141;DHT22;27809;51.864;5.646;2023-02-15T03:05:17;0.50;99.90
42141;DHT22;27809;51.864;5.646;2023-02-15T03:07:47;0.40;99.90
42141;DHT22;27809;51.864;5.646;2023-02-15T03:10:15;0.50;99.90
42141;DHT22;27809;51.864;5.646;2023-02-15T03:12:43;0.50;99.90
42141;DHT22;27809;51.864;5.646;2023-02-15T03:15:38;0.40;99.90
42141;DHT22;27809;51.864;5.646;2023-02-15T03:18:24;0.60;99.90
42141;DHT22;27809;51.864;5.646;2023-02-15T03:20:52;0.50;99.90
42141;DHT22;27809;51.864;5.646;2023-02-15T03:23:21;0.60;99.90
42141;DHT22;27809;51.864;5.646;2023-02-15T03:25:51;0.60;99.90
42141;DHT22;27809;51.864;5.646;2023-02-15T03:28:25;0.70;99.90
42141;DHT22;27809;51.864;5.646;2023-02-15T03:30:55;0.70;99.90
42141;DHT22;27809;51.864;5.646;2023-02-15T03:33:22;0.60;99.90
42141;DHT22;27809;51.864;5.646;2023-02-15T03:36:03;0.20;99.90
42141;DHT22;27809;51.864;5.646;2023-02-15T03:38:55;0.00;99.90
42141;DHT22;27809;51.864;5.646;2023-02-15T03:41:31;0.10;99.90
42141;DHT22;27809;51.864;5.646;2023-02-15T03:43:58;0.00;99.90
42141;DHT22;27809;51.864;5.646;2023-02-15T03:46:39;0.30;99.90
42141;DHT22;27809;51.864;5.646;2023-02-15T03:49:12;0.30;99.90
42141;DHT22;27809;51.864;5.646;2023-02-15T03:51:41;0.10;99.90
42141;DHT22;27809;51.864;5.646;2023-02-15T03:56:40;-0.10;99.90
42141;DHT22;27809;51.864;5.646;2023-02-15T03:59:07;-0.20;99.90
42141;DHT22;27809;51.864;5.646;2023-02-15T04:02:58;-0.20;99.90
42141;DHT22;27809;51.864;5.646;2023-02-15T04:05:03;-0.20;99.90
42141;DHT22;27809;51.864;5.646;2023-02-15T04:07:28;-0.30;99.90
42141;DHT22;27809;51.864;5.646;2023-02-15T04:09:53;0.10;99.90
42141;DHT22;27809;51.864;5.646;2023-02-15T04:12:37;0.10;99.90
42141;DHT22;27809;51.864;5.646;2023-02-15T04:15:03;0.10;99.90
42141;DHT22;27809;51.864;5.646;2023-02-15T04:17:47;0.00;99.90
42141;DHT22;27809;51.864;5.646;2023-02-15T04:20:13;-0.10;99.90
42141;DHT22;27809;51.864;5.646;2023-02-15T04:22:57;0.20;99.90
42141;DHT22;27809;51.864;5.646;2023-02-15T04:25:41;0.30;99.90
42141;DHT22;27809;51.864;5.646;2023-02-15T04:28:06;0.40;99.90
42141;DHT22;27809;51.864;5.646;2023-02-15T04:30:33;0.30;99.90
42141;DHT22;27809;51.864;5.646;2023-02-15T04:32:58;0.30;99.90
42141;DHT22;27809;51.864;5.646;2023-02-15T04:35:24;0.20;99.90
42141;DHT22;27809;51.864;5.646;2023-02-15T04:37:50;0.00;99.90
42141;DHT22;27809;51.864;5.646;2023-02-15T04:40:17;-0.10;99.90
42141;DHT22;27809;51.864;5.646;2023-02-15T04:42:42;-0.20;99.90
42141;DHT22;27809;51.864;5.646;2023-02-15T04:45:08;-0.30;99.90
42141;DHT22;27809;51.864;5.646;2023-02-15T04:47:34;-0.30;99.90
42141;DHT22;27809;51.864;5.646;2023-02-15T04:49:59;-0.50;99.90
42141;DHT22;27809;51.864;5.646;2023-02-15T04:52:25;-0.60;99.90
42141;DHT22;27809;51.864;5.646;2023-02-15T04:54:51;-0.70;99.90
42141;DHT22;27809;51.864;5.646;2023-02-15T04:57:16;-0.80;99.90
42141;DHT22;27809;51.864;5.646;2023-02-15T04:59:42;-0.70;99.90
42141;DHT22;27809;51.864;5.646;2023-02-15T05:02:07;-0.60;99.90
42141;DHT22;27809;51.864;5.646;2023-02-15T05:04:34;-0.40;99.90
42141;DHT22;27809;51.864;5.646;2023-02-15T05:06:59;-0.30;99.90
42141;DHT22;27809;51.864;5.646;2023-02-15T05:09:25;-0.30;99.90
42141;DHT22;27809;51.864;5.646;2023-02-15T05:11:50;-0.30;99.90
42141;DHT22;27809;51.864;5.646;2023-02-15T05:14:16;-0.20;99.90
42141;DHT22;27809;51.864;5.646;2023-02-15T05:16:41;-0.20;99.90
42141;DHT22;27809;51.864;5.646;2023-02-15T05:19:07;-0.20;99.90
42141;DHT22;27809;51.864;5.646;2023-02-15T05:21:32;-0.10;99.90
42141;DHT22;27809;51.864;5.646;2023-02-15T05:23:58;-0.10;99.90
42141;DHT22;27809;51.864;5.646;2023-02-15T05:26:24;0.00;99.90
42141;DHT22;27809;51.864;5.646;2023-02-15T05:29:09;-0.10;99.90
42141;DHT22;27809;51.864;5.646;2023-02-15T05:31:35;-0.20;99.90
42141;DHT22;27809;51.864;5.646;2023-02-15T05:34:01;-0.10;99.90
42141;DHT22;27809;51.864;5.646;2023-02-15T05:36:27;0.00;99.90
42141;DHT22;27809;51.864;5.646;2023-02-15T05:38:53;-0.10;99.90
42141;DHT22;27809;51.864;5.646;2023-02-15T05:41:19;-0.10;99.90
42141;DHT22;27809;51.864;5.646;2023-02-15T05:43:44;-0.10;99.90
42141;DHT22;27809;51.864;5.646;2023-02-15T05:46:10;-0.30;99.90
42141;DHT22;27809;51.864;5.646;2023-02-15T05:48:36;-0.40;99.90
42141;DHT22;27809;51.864;5.646;2023-02-15T05:51:10;-0.60;99.90
42141;DHT22;27809;51.864;5.646;2023-02-15T05:53:38;-0.40;99.90
42141;DHT22;27809;51.864;5.646;2023-02-15T05:56:05;-0.50;99.90
42141;DHT22;27809;51.864;5.646;2023-02-15T05:58:36;-0.60;99.90
42141;DHT22;27809;51.864;5.646;2023-02-15T06:01:09;-0.50;99.90
42141;DHT22;27809;51.864;5.646;2023-02-15T06:03:35;-0.40;99.90
42141;DHT22;27809;51.864;5.646;2023-02-15T06:06:00;-0.20;99.90
42141;DHT22;27809;51.864;5.646;2023-02-15T06:08:27;-0.20;99.90
42141;DHT22;27809;51.864;5.646;2023-02-15T06:10:52;0.20;99.90
42141;DHT22;27809;51.864;5.646;2023-02-15T06:13:18;0.50;99.90
42141;DHT22;27809;51.864;5.646;2023-02-15T06:15:43;0.30;99.90
42141;DHT22;27809;51.864;5.646;2023-02-15T06:18:09;0.30;99.90
42141;DHT22;27809;51.864;5.646;2023-02-15T06:20:34;0.40;99.90
42141;DHT22;27809;51.864;5.646;2023-02-15T06:23:00;0.60;99.90
42141;DHT22;27809;51.864;5.646;2023-02-15T06:25:25;0.50;99.90
42141;DHT22;27809;51.864;5.646;2023-02-15T06:27:51;0.40;99.90
42141;DHT22;27809;51.864;5.646;2023-02-15T06:30:16;0.30;99.90
42141;DHT22;27809;51.864;5.646;2023-02-15T06:32:42;0.20;99.90
42141;DHT22;27809;51.864;5.646;2023-02-15T06:35:08;0.10;99.90
42141;DHT22;27809;51.864;5.646;2023-02-15T06:37:33;0.10;99.90
42141;DHT22;27809;51.864;5.646;2023-02-15T06:39:59;0.00;99.90
42141;DHT22;27809;51.864;5.646;2023-02-15T06:42:24;0.00;99.90
42141;DHT22;27809;51.864;5.646;2023-02-15T06:44:50;0.10;99.90
42141;DHT22;27809;51.864;5.646;2023-02-15T06:47:16;0.00;99.90
42141;DHT22;27809;51.864;5.646;2023-02-15T06:49:41;0.10;99.90
42141;DHT22;27809;51.864;5.646;2023-02-15T06:52:07;0.40;99.90
42141;DHT22;27809;51.864;5.646;2023-02-15T06:54:32;0.40;99.90
42141;DHT22;27809;51.864;5.646;2023-02-15T06:56:58;0.40;99.90
42141;DHT22;27809;51.864;5.646;2023-02-15T06:59:23;0.30;99.90
42141;DHT22;27809;51.864;5.646;2023-02-15T07:01:49;0.30;99.90
42141;DHT22;27809;51.864;5.646;2023-02-15T07:04:15;0.30;99.90
42141;DHT22;27809;51.864;5.646;2023-02-15T07:06:40;0.20;99.90
42141;DHT22;27809;51.864;5.646;2023-02-15T07:09:06;0.30;99.90
42141;DHT22;27809;51.864;5.646;2023-02-15T07:11:33;0.20;99.90
42141;DHT22;27809;51.864;5.646;2023-02-15T07:14:17;0.20;99.90
42141;DHT22;27809;51.864;5.646;2023-02-15T07:16:43;0.20;99.90
42141;DHT22;27809;51.864;5.646;2023-02-15T07:19:08;0.20;99.90
42141;DHT22;27809;51.864;5.646;2023-02-15T07:21:35;0.40;99.90
42141;DHT22;27809;51.864;5.646;2023-02-15T07:24:01;0.60;99.90
42141;DHT22;27809;51.864;5.646;2023-02-15T07:26:26;0.70;99.90
42141;DHT22;27809;51.864;5.646;2023-02-15T07:28:52;0.50;99.90
42141;DHT22;27809;51.864;5.646;2023-02-15T07:31:17;0.70;99.90
42141;DHT22;27809;51.864;5.646;2023-02-15T07:33:43;0.70;99.90
42141;DHT22;27809;51.864;5.646;2023-02-15T07:36:09;0.70;99.90
42141;DHT22;27809;51.864;5.646;2023-02-15T07:38:38;0.70;99.90
42141;DHT22;27809;51.864;5.646;2023-02-15T07:41:06;0.70;99.90
42141;DHT22;27809;51.864;5.646;2023-02-15T07:43:37;0.90;99.90
42141;DHT22;27809;51.864;5.646;2023-02-15T07:46:05;1.40;99.90
42141;DHT22;27809;51.864;5.646;2023-02-15T07:48:32;1.80;99.90
42141;DHT22;27809;51.864;5.646;2023-02-15T07:50:59;1.50;99.90
42141;DHT22;27809;51.864;5.646;2023-02-15T07:53:25;1.20;99.90
42141;DHT22;27809;51.864;5.646;2023-02-15T07:55:50;1.10;99.90
42141;DHT22;27809;51.864;5.646;2023-02-15T07:58:17;1.20;99.90
42141;DHT22;27809;51.864;5.646;2023-02-15T08:00:43;1.10;99.90
42141;DHT22;27809;51.864;5.646;2023-02-15T08:03:27;1.30;99.90
42141;DHT22;27809;51.864;5.646;2023-02-15T08:05:58;1.40;99.90
42141;DHT22;27809;51.864;5.646;2023-02-15T08:08:25;1.50;99.90
42141;DHT22;27809;51.864;5.646;2023-02-15T08:13:57;1.70;99.90
42141;DHT22;27809;51.864;5.646;2023-02-15T08:16:37;1.90;99.90
42141;DHT22;27809;51.864;5.646;2023-02-15T08:19:20;2.30;99.90
42141;DHT22;27809;51.864;5.646;2023-02-15T08:21:49;2.30;99.90
42141;DHT22;27809;51.864;5.646;2023-02-15T08:24:18;2.50;99.90
42141;DHT22;27809;51.864;5.646;2023-02-15T08:26:44;2.50;99.90
42141;DHT22;27809;51.864;5.646;2023-02-15T08:29:12;2.50;99.90
42141;DHT22;27809;51.864;5.646;2023-02-15T08:31:38;2.70;99.90
42141;DHT22;27809;51.864;5.646;2023-02-15T08:34:06;3.00;99.90
42141;DHT22;27809;51.864;5.646;2023-02-15T08:36:32;3.10;99.90
42141;DHT22;27809;51.864;5.646;2023-02-15T08:38:59;3.20;99.90
42141;DHT22;27809;51.864;5.646;2023-02-15T08:41:28;3.10;99.90
42141;DHT22;27809;51.864;5.646;2023-02-15T08:43:57;3.20;99.90
42141;DHT22;27809;51.864;5.646;2023-02-15T08:46:24;3.30;99.90
42141;DHT22;27809;51.864;5.646;2023-02-15T08:48:51;3.40;99.90
42141;DHT22;27809;51.864;5.646;2023-02-15T08:51:18;3.30;99.90
42141;DHT22;27809;51.864;5.646;2023-02-15T08:53:47;3.20;99.90
42141;DHT22;27809;51.864;5.646;2023-02-15T08:56:20;3.30;99.90
42141;DHT22;27809;51.864;5.646;2023-02-15T08:58:46;3.50;99.90
42141;DHT22;27809;51.864;5.646;2023-02-15T09:01:17;3.40;99.90
42141;DHT22;27809;51.864;5.646;2023-02-15T09:03:44;3.50;99.90
42141;DHT22;27809;51.864;5.646;2023-02-15T09:06:10;3.60;99.90
42141;DHT22;27809;51.864;5.646;2023-02-15T09:08:36;3.80;99.90
42141;DHT22;27809;51.864;5.646;2023-02-15T09:13:31;5.10;99.90
42141;DHT22;27809;51.864;5.646;2023-02-15T09:16:05;5.10;99.90
42141;DHT22;27809;51.864;5.646;2023-02-15T09:18:34;5.00;99.90
42141;DHT22;27809;51.864;5.646;2023-02-15T09:21:10;5.10;99.90
42141;DHT22;27809;51.864;5.646;2023-02-15T09:23:36;5.40;99.90
42141;DHT22;27809;51.864;5.646;2023-02-15T09:26:07;5.90;99.90
42141;DHT22;27809;51.864;5.646;2023-02-15T09:28:33;6.00;99.90
42141;DHT22;27809;51.864;5.646;2023-02-15T09:31:11;6.60;99.90
42141;DHT22;27809;51.864;5.646;2023-02-15T09:33:37;7.40;99.80
42141;DHT22;27809;51.864;5.646;2023-02-15T09:36:04;7.90;96.70
42141;DHT22;27809;51.864;5.646;2023-02-15T09:38:30;10.40;77.90
42141;DHT22;27809;51.864;5.646;2023-02-15T09:49:33;9.60;72.30
42141;DHT22;27809;51.864;5.646;2023-02-15T10:00:26;8.10;90.30
42141;DHT22;27809;51.864;5.646;2023-02-15T10:06:15;9.30;77.00
42141;DHT22;27809;51.864;5.646;2023-02-15T10:11:54;9.20;77.60
42141;DHT22;27809;51.864;5.646;2023-02-15T10:14:43;10.20;67.00
42141;DHT22;27809;51.864;5.646;2023-02-15T10:18:31;10.90;63.60
42141;DHT22;27809;51.864;5.646;2023-02-15T10:20:28;11.50;56.90
42141;DHT22;27809;51.864;5.646;2023-02-15T10:28:56;11.80;50.60
42141;DHT22;27809;51.864;5.646;2023-02-15T10:34:18;10.90;51.40
42141;DHT22;27809;51.864;5.646;2023-02-15T10:39:40;10.20;59.00
42141;DHT22;27809;51.864;5.646;2023-02-15T10:45:06;11.20;76.60
42141;DHT22;27809;51.864;5.646;2023-02-15T10:47:54;18.50;20.90
42141;DHT22;27809;51.864;5.646;2023-02-15T10:56:23;22.00;4.10
42141;DHT22;27809;51.864;5.646;2023-02-15T11:06:56;23.50;1.00
42141;DHT22;27809;51.864;5.646;2023-02-15T11:09:25;23.40;1.00
42141;DHT22;27809;51.864;5.646;2023-02-15T11:11:56;23.20;1.00
42141;DHT22;27809;51.864;5.646;2023-02-15T11:16:57;22.60;1.00
42141;DHT22;27809;51.864;5.646;2023-02-15T11:19:32;21.60;1.00
42141;DHT22;27809;51.864;5.646;2023-02-15T11:22:02;15.70;7.10
42141;DHT22;27809;51.864;5.646;2023-02-15T11:24:31;13.80;15.50
42141;DHT22;27809;51.864;5.646;2023-02-15T11:29:33;13.20;23.50
42141;DHT22;27809;51.864;5.646;2023-02-15T11:32:11;13.60;24.20
42141;DHT22;27809;51.864;5.646;2023-02-15T11:34:54;13.70;23.30
42141;DHT22;27809;51.864;5.646;2023-02-15T11:37:29;13.60;23.60
42141;DHT22;27809;51.864;5.646;2023-02-15T11:39:57;13.70;23.20
42141;DHT22;27809;51.864;5.646;2023-02-15T11:42:23;13.20;22.40
42141;DHT22;27809;51.864;5.646;2023-02-15T11:45:00;13.00;23.20
42141;DHT22;27809;51.864;5.646;2023-02-15T11:47:27;12.80;24.30
42141;DHT22;27809;51.864;5.646;2023-02-15T11:49:53;12.90;25.30
42141;DHT22;27809;51.864;5.646;2023-02-15T11:52:19;12.80;22.90
42141;DHT22;27809;51.864;5.646;2023-02-15T11:54:47;13.20;24.20
42141;DHT22;27809;51.864;5.646;2023-02-15T11:57:28;13.00;24.70
42141;DHT22;27809;51.864;5.646;2023-02-15T12:02:37;13.10;23.10
42141;DHT22;27809;51.864;5.646;2023-02-15T12:05:14;12.80;24.70
42141;DHT22;27809;51.864;5.646;2023-02-15T12:07:46;12.40;27.60
42141;DHT22;27809;51.864;5.646;2023-02-15T12:10:30;12.00;27.90
42141;DHT22;27809;51.864;5.646;2023-02-15T12:13:16;12.00;27.50
42141;DHT22;27809;51.864;5.646;2023-02-15T12:15:47;12.10;28.40
42141;DHT22;27809;51.864;5.646;2023-02-15T12:21:08;12.40;28.10
42141;DHT22;27809;51.864;5.646;2023-02-15T12:23:50;12.90;25.70
42141;DHT22;27809;51.864;5.646;2023-02-15T12:26:31;12.80;26.40
42141;DHT22;27809;51.864;5.646;2023-02-15T12:29:06;13.70;24.40
42141;DHT22;27809;51.864;5.646;2023-02-15T12:31:38;13.60;22.80
42141;DHT22;27809;51.864;5.646;2023-02-15T12:34:30;13.20;24.00
42141;DHT22;27809;51.864;5.646;2023-02-15T12:37:00;13.50;26.00
42141;DHT22;27809;51.864;5.646;2023-02-15T12:39:28;14.50;24.90
42141;DHT22;27809;51.864;5.646;2023-02-15T12:44:28;15.00;17.50
42141;DHT22;27809;51.864;5.646;2023-02-15T12:47:03;14.40;19.60
42141;DHT22;27809;51.864;5.646;2023-02-15T12:49:36;14.20;21.20
42141;DHT22;27809;51.864;5.646;2023-02-15T12:52:22;14.30;19.40
42141;DHT22;27809;51.864;5.646;2023-02-15T12:54:49;14.40;19.60
42141;DHT22;27809;51.864;5.646;2023-02-15T12:59:57;15.00;18.90
42141;DHT22;27809;51.864;5.646;2023-02-15T13:05:14;14.20;19.80
42141;DHT22;27809;51.864;5.646;2023-02-15T13:07:50;13.60;22.00
42141;DHT22;27809;51.864;5.646;2023-02-15T13:10:34;13.70;22.30
42141;DHT22;27809;51.864;5.646;2023-02-15T13:13:00;13.70;24.50
42141;DHT22;27809;51.864;5.646;2023-02-15T13:15:29;13.90;26.30
42141;DHT22;27809;51.864;5.646;2023-02-15T13:17:57;13.60;23.70
42141;DHT22;27809;51.864;5.646;2023-02-15T13:20:23;13.60;22.30
42141;DHT22;27809;51.864;5.646;2023-02-15T13:22:58;17.30;15.50
42141;DHT22;27809;51.864;5.646;2023-02-15T13:25:29;20.10;12.80
42141;DHT22;27809;51.864;5.646;2023-02-15T13:28:00;17.50;12.00
42141;DHT22;27809;51.864;5.646;2023-02-15T13:30:32;15.40;17.00
42141;DHT22;27809;51.864;5.646;2023-02-15T13:33:05;15.00;18.80
42141;DHT22;27809;51.864;5.646;2023-02-15T13:35:56;14.60;19.30
42141;DHT22;27809;51.864;5.646;2023-02-15T13:41:32;13.90;20.00
42141;DHT22;27809;51.864;5.646;2023-02-15T13:52:27;14.30;19.10
42141;DHT22;27809;51.864;5.646;2023-02-15T14:00:35;13.20;22.70
42141;DHT22;27809;51.864;5.646;2023-02-15T14:05:53;12.90;26.60
42141;DHT22;27809;51.864;5.646;2023-02-15T14:19:59;13.30;31.20
42141;DHT22;27809;51.864;5.646;2023-02-15T14:22:35;13.20;33.00
42141;DHT22;27809;51.864;5.646;2023-02-15T14:25:31;13.20;33.50
42141;DHT22;27809;51.864;5.646;2023-02-15T14:28:10;13.50;33.10
42141;DHT22;27809;51.864;5.646;2023-02-15T14:30:49;13.20;32.90
42141;DHT22;27809;51.864;5.646;2023-02-15T14:35:41;13.20;27.80
42141;DHT22;27809;51.864;5.646;2023-02-15T14:48:58;12.80;37.10
42141;DHT22;27809;51.864;5.646;2023-02-15T14:59:55;12.30;45.50
42141;DHT22;27809;51.864;5.646;2023-02-15T15:02:39;12.20;47.00
42141;DHT22;27809;51.864;5.646;2023-02-15T15:05:21;12.10;64.10
42141;DHT22;27809;51.864;5.646;2023-02-15T15:07:57;11.90;77.00
42141;DHT22;27809;51.864;5.646;2023-02-15T15:15:55;11.40;72.20
42141;DHT22;27809;51.864;5.646;2023-02-15T15:18:44;11.40;69.20
42141;DHT22;27809;51.864;5.646;2023-02-15T15:21:10;11.20;80.50
42141;DHT22;27809;51.864;5.646;2023-02-15T15:26:23;11.00;72.80
42141;DHT22;27809;51.864;5.646;2023-02-15T15:31:18;10.90;78.60
42141;DHT22;27809;51.864;5.646;2023-02-15T15:36:25;10.90;67.60
42141;DHT22;27809;51.864;5.646;2023-02-15T15:39:27;10.80;73.20
42141;DHT22;27809;51.864;5.646;2023-02-15T15:50:23;9.90;96.60
42141;DHT22;27809;51.864;5.646;2023-02-15T15:52:51;9.80;96.80
42141;DHT22;27809;51.864;5.646;2023-02-15T15:55:20;9.60;96.80
42141;DHT22;27809;51.864;5.646;2023-02-15T15:57:49;9.70;96.00
42141;DHT22;27809;51.864;5.646;2023-02-15T16:00:54;9.50;96.40
42141;DHT22;27809;51.864;5.646;2023-02-15T16:03:25;9.30;97.60
42141;DHT22;27809;51.864;5.646;2023-02-15T16:05:51;9.20;97.80
42141;DHT22;27809;51.864;5.646;2023-02-15T16:08:41;9.10;99.90
42141;DHT22;27809;51.864;5.646;2023-02-15T16:11:39;9.80;95.50
42141;DHT22;27809;51.864;5.646;2023-02-15T16:14:16;9.20;97.00
42141;DHT22;27809;51.864;5.646;2023-02-15T16:16:49;9.10;97.40
42141;DHT22;27809;51.864;5.646;2023-02-15T16:19:29;11.30;64.20
42141;DHT22;27809;51.864;5.646;2023-02-15T16:21:58;9.50;90.50
42141;DHT22;27809;51.864;5.646;2023-02-15T16:24:45;9.00;97.10
42141;DHT22;27809;51.864;5.646;2023-02-15T16:29:54;8.60;98.80
42141;DHT22;27809;51.864;5.646;2023-02-15T16:32:21;8.50;99.50
42141;DHT22;27809;51.864;5.646;2023-02-15T16:37:21;8.50;99.50
42141;DHT22;27809;51.864;5.646;2023-02-15T16:39:49;8.40;99.90
42141;DHT22;27809;51.864;5.646;2023-02-15T16:42:16;8.50;99.90
42141;DHT22;27809;51.864;5.646;2023-02-15T16:44:43;8.20;99.90
42141;DHT22;27809;51.864;5.646;2023-02-15T16:49:48;7.80;99.90
42141;DHT22;27809;51.864;5.646;2023-02-15T16:52:24;7.70;99.90
42141;DHT22;27809;51.864;5.646;2023-02-15T16:54:54;7.60;99.90
42141;DHT22;27809;51.864;5.646;2023-02-15T16:57:23;7.60;99.90
42141;DHT22;27809;51.864;5.646;2023-02-15T16:59:51;7.60;99.90
42141;DHT22;27809;51.864;5.646;2023-02-15T17:02:27;7.50;99.90
42141;DHT22;27809;51.864;5.646;2023-02-15T17:05:21;7.40;99.90
42141;DHT22;27809;51.864;5.646;2023-02-15T17:10:38;7.20;99.90
42141;DHT22;27809;51.864;5.646;2023-02-15T17:13:11;7.20;99.90
42141;DHT22;27809;51.864;5.646;2023-02-15T17:15:42;7.40;99.90
42141;DHT22;27809;51.864;5.646;2023-02-15T17:18:18;7.40;99.90
42141;DHT22;27809;51.864;5.646;2023-02-15T17:20:46;7.10;99.90
42141;DHT22;27809;51.864;5.646;2023-02-15T17:25:56;6.80;99.90
42141;DHT22;27809;51.864;5.646;2023-02-15T17:28:22;7.10;99.90
42141;DHT22;27809;51.864;5.646;2023-02-15T17:30:49;7.00;99.90
42141;DHT22;27809;51.864;5.646;2023-02-15T17:33:20;6.80;99.90
42141;DHT22;27809;51.864;5.646;2023-02-15T17:35:57;6.70;99.90
42141;DHT22;27809;51.864;5.646;2023-02-15T17:38:26;6.60;99.90
42141;DHT22;27809;51.864;5.646;2023-02-15T17:40:52;6.60;99.90
42141;DHT22;27809;51.864;5.646;2023-02-15T17:43:17;6.50;99.90
42141;DHT22;27809;51.864;5.646;2023-02-15T17:45:49;6.30;99.90
42141;DHT22;27809;51.864;5.646;2023-02-15T17:50:44;7.30;99.90
42141;DHT22;27809;51.864;5.646;2023-02-15T17:53:16;6.50;99.90
42141;DHT22;27809;51.864;5.646;2023-02-15T17:55:42;6.30;99.90
42141;DHT22;27809;51.864;5.646;2023-02-15T17:58:12;6.10;99.90
42141;DHT22;27809;51.864;5.646;2023-02-15T18:00:39;6.00;99.90
42141;DHT22;27809;51.864;5.646;2023-02-15T18:03:24;5.80;99.90
42141;DHT22;27809;51.864;5.646;2023-02-15T18:06:11;5.90;99.90
42141;DHT22;27809;51.864;5.646;2023-02-15T18:08:56;6.10;99.90
42141;DHT22;27809;51.864;5.646;2023-02-15T18:11:40;6.20;99.90
42141;DHT22;27809;51.864;5.646;2023-02-15T18:14:08;6.30;99.90
42141;DHT22;27809;51.864;5.646;2023-02-15T18:16:38;6.30;99.90
42141;DHT22;27809;51.864;5.646;2023-02-15T18:19:05;6.10;99.90
42141;DHT22;27809;51.864;5.646;2023-02-15T18:21:34;5.90;99.90
42141;DHT22;27809;51.864;5.646;2023-02-15T18:24:00;5.90;99.90
42141;DHT22;27809;51.864;5.646;2023-02-15T18:26:25;5.90;99.90
42141;DHT22;27809;51.864;5.646;2023-02-15T18:28:51;5.80;99.90
42141;DHT22;27809;51.864;5.646;2023-02-15T18:31:17;5.90;99.90
42141;DHT22;27809;51.864;5.646;2023-02-15T18:33:44;5.90;99.90
42141;DHT22;27809;51.864;5.646;2023-02-15T18:36:13;5.50;99.90
42141;DHT22;27809;51.864;5.646;2023-02-15T18:38:39;5.40;99.90
42141;DHT22;27809;51.864;5.646;2023-02-15T18:41:04;5.50;99.90
42141;DHT22;27809;51.864;5.646;2023-02-15T18:43:30;5.50;99.90
42141;DHT22;27809;51.864;5.646;2023-02-15T18:45:55;5.50;99.90
42141;DHT22;27809;51.864;5.646;2023-02-15T18:48:21;5.60;99.90
42141;DHT22;27809;51.864;5.646;2023-02-15T18:50:46;5.50;99.90
42141;DHT22;27809;51.864;5.646;2023-02-15T18:53:16;5.50;99.90
42141;DHT22;27809;51.864;5.646;2023-02-15T18:55:44;5.60;99.90
42141;DHT22;27809;51.864;5.646;2023-02-15T18:58:13;5.70;99.90
42141;DHT22;27809;51.864;5.646;2023-02-15T19:00:39;5.60;99.90
42141;DHT22;27809;51.864;5.646;2023-02-15T19:03:04;5.50;99.90
42141;DHT22;27809;51.864;5.646;2023-02-15T19:05:31;5.30;99.90
42141;DHT22;27809;51.864;5.646;2023-02-15T19:07:57;5.20;99.90
42141;DHT22;27809;51.864;5.646;2023-02-15T19:10:24;5.00;99.90
42141;DHT22;27809;51.864;5.646;2023-02-15T19:12:50;5.00;99.90